Capitan Oriel Lea Plaza Airport

Airport
ICAO code: 
SLTJ
IATA Code: 
TJA
Summary
ICAO Region: 
CARSAM
Territory: 
Location: 
Tarija, Tarija
Serving: 
Tarija
Elevation: 
6079 ft
Coordinates: 
Aerial View: 
21° 33' 20.65" S, 64° 42' 4.77" W
Metar
Observation
SLTJ 170100Z 00000KT 9999 FEW070 BKN200 22/15 Q1014
Station
Tarija
Date/Time
2022-01-17 01:00:00
Wind direction
Wind speed
00 kts
Lowest cloud amount
few clouds
Temperature
22°C
Dew point
15°C
Humidity
64%
QNH
1014 hPa
Weather condition
n/a

Airport serving Tarija, the capital of the Tarija Department of Bolivia. The airport is in the southeastern section of the city, which is within a basin of the Cordillera Central mountain range. There is mountainous terrain in all quadrants.

Climatology

Semi-arid climate (Köppen climate classification BSh).

Runways

Designator Length Width Surface Rops
13/31 3050 45 ASP No/No
Airport map: 
Aerial View: 

SKYbrary Partners:

Safety knowledge contributed by: